Tropical Cyclones
[Index]
Main Index Home Page Stock Weather Photos Extreme Storms Discussion Storm News and Storm Chasing Reports Tropical Cyclones / Hurricanes / Typhoons Weather Data and Links Wild Fires / Bushfires Weather Observation Techniques Weather Picture Catalogue Tornado Pictures and Reports Stock Video Footage and DVDs for sale
Listing of all Tropical Storms from Operational data
[BoM Tropical Cyclone Listing] [JTWC Tropical Cyclone Listing] [Operational Tropical Storm Listing]

The following is a list of all all tropical cyclones, tropical lows, tropical depressions and hybrid lows tracked by the various tropical cyclone warning agencies.

Click on a tropical cyclone name to view the track map.

   cyclone  start date     end date       latitude  longitude      min  max  cyclone
    number  yyyy-mm-dd hh  yyyy-mm-dd hh  min  max  min    max     hPa  kts  name   
=============================================================================================
   1  9802  1997-10-08 00  1997-10-12 06  070  239  1690   1781    985   50  LUSI
   2  9803  1997-10-26 12  1997-10-28 00  128  149  1735   1760          31  199803
   3  9804  1997-10-31 00  1997-11-05 12  100  260  1665W  1400W   955   80  MARTIN
   4  9805  1997-11-18 00  1997-11-21 12  112  210  1575   1652    975   60  NUTE
   5  9806  1997-11-22 00  1997-11-28 06  095  215  1582W  1485W   950   80  OSEA
   6  9807  1997-12-05 00  1997-12-10 21  090  260  1663W  1530W   975   60  PAM
   7  9808  1997-12-26 00  1998-01-07 18  110  166  1318   1405    985   50  SID
   8  9809  1997-12-26 18  1998-01-02 00  135  177  0928   1119    966   70  SELWYN
   9  9810  1998-01-01 06  1998-01-08 18  088  280  1759W  1655W   900  125  RON
  10  9811  1998-01-03 00  1998-01-09 18  122  400  1699   1660W   900  125  SUSAN
  11  9812  1997-01-01 18  1997-01-28 06  125  220  1484   1651    940   90  KATRINA
  12  9813  1998-01-18 00  1998-01-23 00  170  266  0349   0461          31  199813
  13  9814  1998-01-23 12  1998-02-02 00  139  213  1221   1415    980   55  LES
  14  9815  1998-01-24 00  1998-01-31 12  166  197  1058   1235    930  100  TIFFANY
  15  9816  1998-01-25 00  1998-01-27 18  108  153  1740W  1710W   987   45  TUI
  16  9817  1998-01-29 21  1998-02-02 12  146  340  1508W  1220W   980   55  URSULA
  17  9818  1998-01-31 12  1998-02-03 18  120  230  1570W  1428W   980   55  VELI
  18  9819  1998-01-31 06  1998-02-05 00  117  175  1730W  1580W   987   45  WES
  19  9820  1998-02-08 06  1998-02-14 12  126  407  0592   0835         101  ANACELLE
  20  9821  1998-02-09 06  1998-02-10 00  272  293  0437   0450          31  199821
  21  9822  1998-02-10 00  1998-02-19 00  148  285  0748   1205    965   70  VICTOR-CINDY
  22  9823  1998-02-16 06  1998-02-18 18  215  251  0398   0440          35  BELTANE
  23  9824  1998-02-16 12  1998-02-19 00  221  302  0621   0706          40  199824
  24  9825  1998-02-25 03  1998-02-26 12  148  173  1382   1391    990   40  MAY
  25  9826  1998-03-06 12  1998-03-10 12  165  289  0670   0726          48  DONALINE
  26  9827  1998-03-12 00  1998-03-17 12  171  261  0767   0826          79  ELSIE
  27  9828  1998-03-17 00  1998-03-20 12  173  228  0585   0615          35  FIONA
  28  9829  1998-03-18 12  1998-03-27 00  119  303  1582   1700    965   70  YALI
  29  9830  1998-03-21 00  1998-03-31 00  112  166  1435   1588    990   50  NATHAN
  30  9831  1998-03-29 21  1998-04-06 00  137  240  1611   1710    955   80  ZUMAN
  31  9832  1998-04-07 00  1998-04-15 00  138  163  0700   0781          62  GEMMA
  32  9833  1998-04-07 00  1998-04-07 12  154  168  0737   0758          26  199833
  33  9834  1998-04-19 00  1998-04-22 12  102  124  0596   0749          35  199834
  34  9835  1998-04-19 00  1998-04-19 12  141  150  1251   1257   1002   35  199835
  35  9836  1998-04-19 06  1998-04-26 18  105  176  1596W  1510W   992   40  ALAN
  36  9837  1998-04-28 22  1998-05-03 00  150  240  1440W  1300W   988   45  BART
  37  98PA  1998-02-11 00  1998-02-15 06  110  134  1664W  1614W   995   35  TROP-DEPRESSION-01
  38  98PB  1998-02-28 06  1998-03-02 06  110  146  1640   1717    997   30  TROP-DEPRESSION-02
  39  98PC  1998-02-28 06  1998-03-01 00  130  130  1540W  1515W   997   25  TROP-DEPRESSION-03
  40  9901  1998-07-20 06  1998-07-25 00  065  101  0760   0855    998   30  199901
  41  9902  1998-09-29 06  1998-10-02 12  088  164  0698   0786   1002   35  199902
  42  9903  1998-10-07 00  1998-10-10 12  105  175  0916   0971    985   55  ZELIA
  43  9904  1998-11-08 04  1998-11-13 00  109  195  0898   0990    975   60  ALISON
  44  9905  1998-12-01 18  1998-12-06 18  140  226  1149   1200    975   60  BILLY
  45  9906  1998-12-03 18  1998-12-15 06  088  210  1194   1350    925  120  THELMA
  46  9907  1998-12-14 21  1998-12-17 05  195  335  1595   1650    996   40  199907
  47  9908  1998-12-22 00  1998-12-24 00  220  399  1520W  1340W   997   35  199908
  48  9909  1998-12-21 06  1998-12-28 23  130  330  1788W  1490W   960   75  CORA
  49  9910  1998-12-16 04  1998-12-30 02  090  183  0845   1022    990   45  CATHY
  50  9911  1999-01-13 21  1999-01-24 11  129  340  1634   1790    930   95  DANI
  51  9912  1999-01-14 12  1999-01-19 06  200  324  0361   0445    975   52  ALDA
  52  9913  1999-01-19 06  1999-01-24 23  150  268  1530   1783    985   55  OLINDA
  53  9914  1999-01-20 06  1999-01-27 18  150  255  1481   1700    985   50  PETE
  54  9915  1999-01-20 04  1999-02-07 18  080  175  0490   1130    955   78  DAMIEN-BIRENDA
  55  9916  1999-02-22 18  1999-02-27 19  100  147  1330   1390    993   30  199916
  56  9917  1999-01-24 18  1999-02-05 06  050  203  0506   0990    990   37  CHIKITA
  57  9918  1999-01-31 18  1999-02-14 04  120  210  1073   1185    995   40  199918
  58  9919  1999-02-09 06  1999-02-14 00  110  260  1600   1700    987   45  ELLA
  59  9920  1999-02-08 05  1999-02-12 18  140  167  1413   1500    970   60  RONA
  60  9921  1999-02-11 12  1999-02-17 00  182  228  0375   0410    994   33  199921
  61  9922  1999-02-16 23  1999-02-23 06  197  294  1524   1664    955   80  FRANK
  62  9923  1999-02-21 18  1999-03-04 18  194  251  0350   0435   1000   25  199923
  63  9924  1999-02-27 00  1999-03-02 02  245  329  1565W  1535W   990   45  GITA
  64  9925  1999-03-01 06  1999-03-19 12  095  233  0493   0912    930   90  DAVINA
  65  9926  1999-02-28 18  1999-03-27 18  090  163  0580   1270    999   33  199926
  66  9927  1999-03-11 12  1999-03-19 00  180  250  1647W  1545W   975   65  HALI
  67  9928  1999-03-14 18  1999-03-20 04  130  286  1106   1200    960   75  ELAINE
  68  9929  1999-03-11 18  1999-03-21 00  120  199  0700   0869    995   30  199929
  69  9930  1999-03-16 00  1999-03-24 05  110  360  1143   1360    915  110  VANCE
  70  9931  1999-03-21 04  1999-04-10 18  080  226  0624   1360    915  110  FREDERIC-EVRINA
  71  9932  1999-04-01 06  1999-04-07 22  090  204  1166   1350    915  110  GWENDA
  72  9933  1999-04-08 18  1999-04-24 06  070  167  0828   0938    985   55  HAMISH
  73  99SA  1998-09-03 12  1998-09-06 06  083  102  0705   0853   1002   25  TROP-DEPRESSION-01
  74  99SB  1998-12-07 10  1998-12-13 04  100  122  0950   0970   1000   25  TROP-LOW-01
  75  99PA  1998-12-26 06  1999-01-02 06  140  170  1350   1400    996   30  TROP-LOW-02
  76  99SC  1999-01-04 12  1999-01-06 00  214  301  0402   0460    996   30  TROP-DEPRESSION-02
  77  99PB  1999-02-18 21  1999-02-19 12  220  245  1750W  1715W   995   40  TROP-DEPRESSION-03
  78  99SD  1999-03-19 18  1999-03-22 18  160  194  0998   1033    996   25  TROP-LOW-03
  79  99PC  1999-03-13 21  1999-03-18 00  140  251  1551W  1440W   997   35  TROP-DEPRESSION-04
  80  99PD  1999-04-13 06  1999-04-26 04  070  120  1270   1405    999   35  TROP-LOW-04
  81  99PE  1999-05-20 18  1999-05-27 12  175  605  1595   1740W   972   55  TROP-DEPRESSION-05
  82  0001  1999-12-10 04  1999-12-17 12  090  205  0960   1215    985   55  ILSA
  83  0002  1999-12-09 04  1999-12-16 01  105  230  1173   1215    915  110  JOHN
  84  0003  1999-12-24 02  2000-01-03 06  095  160  0402   0752    985   50  ASTRIDE
  85  0004  2000-01-03 06  2000-01-12 18  104  295  0670   0844    954   80  BABIOLA
  86  0005  2000-01-07 00  2000-01-10 18  155  200  1640   1800    975   60  IRIS
  87  0006  2000-01-18 04  2000-01-23 01  105  200  1148   1285    992   35  200006
  88  0007  2000-01-23 00  2000-01-28 06  140  330  1720   1640W   975   60  JO
  89  0008  2000-01-25 06  2000-02-02 06  142  334  0500   0571    928  100  CONNIE
  90  0009  2000-01-25 04  2000-02-01 18  123  236  1028   1129    965   65  KIRRILY
  91  0010  2000-01-31 06  2000-02-02 18  114  177  0749   0785    992   40  DAMIENNE
  92  0011  2000-02-03 01  2000-02-23 00  110  225  0319   1110    928  100  LEON-ELINE
  93  00S1  2000-02-15 04  2000-02-21 04  140  174  1015   1078    992   45  MARCIA
  94  0012  2000-02-19 06  2000-02-24 06  141  305  0638   0781    974   60  FELICIA
  95  0013  2000-02-23 21  2000-02-29 18  231  361  1524W  1340W   955   80  KIM
  96  0014  2000-02-25 06  2000-03-12 17  144  440  1131   1520    975   60  STEVE
  97  0015  2000-02-28 06  2000-03-05 06  114  204  0431   0590    988   45  GLORIA
  98  0016  2000-02-28 01  2000-03-08 18  165  253  0914   1280    920  110  NORMAN
  99  0017  2000-03-01 06  2000-03-07 12  132  165  0800   0883    998   30  200017
 100  0018  2000-03-05 00  2000-03-09 05  203  490  1670W  1530W   973   50  LEO
 101  0019  2000-03-07 06  2000-03-13 05  170  430  1759W  1635W   965   70  MONA
 102  0020  2000-03-15 00  2000-03-21 07  165  248  1005   1190    980   55  OLGA
 103  0021  2000-03-24 10  2000-04-09 06  146  190  0382   0930    905  120  HUDAH
 104  0022  2000-03-31 06  2000-04-02 23  142  188  1461   1552    987   50  TESSI
 105  0023  2000-03-28 18  2000-04-07 00  131  210  1438   1690    975   60  VAUGHAN
 106  0024  2000-04-13 01  2000-04-22 04  136  156  0900   1137    920  110  PAUL
 107  0025  2000-04-15 06  2000-04-17 18  198  250  1781   1766W   992   40  NEIL
 108  0026  2000-04-12 18  2000-04-19 12  108  180  0699   0890    994   35  INNOCENTE
 109  0027  2000-04-15 04  2000-04-21 04  120  200  1180   1310    930  105  ROSITA
 110  00PA  1999-09-05 06  1999-09-06 12  225  237  1710   1729   1000   35  TROP-DEPRESSION-01
 111  00PB  1999-11-01 12  1999-11-02 00  230  240  1720   1730   1000   35  TROP-DEPRESSION-02
 112  00PC  1999-11-13 00  1999-11-14 12  200  260  1510W  1470W   995   40  DEPRESSION-01
 113  00PD  1999-12-02 06  1999-12-03 06  126  135  1456   1480   1002   35  TROP-LOW-01
 114  00PE  1999-12-26 20  1999-12-29 11  220  290  1430   1630    992   45  HYBRID-LOW-01
 115  00PF  1999-12-01 21  1999-12-03 06  155  165  1680   1690   1006   30  TROP-DEPRESSION-03
 116  00PG  1999-12-05 06  1999-12-07 21  210  230  1660   1740W  1003   35  TROP-DEPRESSION-04
 117  00SA  2000-01-12 12  2000-01-26 18  186  225  0380   0457    998   25  TROP-DISTURBANCE-01
 118  00PH  2000-01-10 06  2000-01-11 06  135  154  1500   1512   1000   35  TROP-LOW-02
 119  00PI  2000-01-12 06  2000-01-13 12  260  265  1570   1610   1002   40  HYBRID-LOW-02
 120  00PJ  2000-01-03 21  2000-01-06 18  175  210  1700   1790W  1004   25  TROP-DEPRESSION-05
 121  00PK  2000-01-20 06  2000-01-26 05  140  260  1774W  1680W   996   40  TROP-DEPRESSION-06
 122  00PL  2000-02-19 01  2000-02-19 12  180  199  1507   1525   1003   25  TROP-LOW-03
 123  00PM  2000-02-28 21  2000-02-29 17  200  250  1667   1690    994   35  TROP-DEPRESSION-07
 124  00SB  2000-03-02 06  2000-03-03 12  113  133  0728   0740   1002   25  TROP-DEPRESSION-08
 125  00PN  2000-03-14 05  2000-03-16 06  110  177  1473   1545   1002   40  TROP-LOW-04
 126  00PO  2000-03-24 05  2000-03-26 06  247  270  1561   1570   1006   40  NON-TROP-LOW-01
 127  00SC  2000-04-07 00  2000-04-17 00  232  286  0353   0440          57  HYBRID-LOW-03
 128  00PP  2000-04-26 17  2000-05-02 18  135  214  1455   1610   1000   40  TROP-LOW-05
 129  00PQ  2000-04-28 00  2000-05-02 00  165  228  1495   1620    996   50  TROP-LOW-06
 130  00PR  2000-05-20 21  2000-05-23 06  118  130  1558   1605   1002   40  TROP-LOW-07
 131  00PS  2000-05-03 12  2000-05-08 18  190  222  1692W  1642W  1001   40  TROP-DEPRESSION-09
 132  0101  2000-08-01 06  2000-08-03 12  060  090  0736   0790    999   30  200101
 133  0102  2000-11-11 06  2000-11-20 10  088  156  0782   0870    998   30  200102
 134  0103  2000-12-02 06  2000-12-10 12  105  217  1200   1280    925  105  SAM
 135  0104  2000-12-31 12  2001-01-10 06  098  307  0504   0682    930  100  ANDO
 136  0105  2001-01-04 06  2001-01-17 06  094  242  0590   0867    955   80  BINDU
 137  0106  2001-01-17 18  2001-01-26 12  123  257  0568   0865    925  105  CHARLY
 138  0107  2001-01-28 04  2001-01-31 16  155  237  1190   1235    975   60  TERRI
 139  0108  2001-02-08 04  2001-02-11 18  105  160  1335   1376    980   40  WINSOME
 140  0109  2001-02-05 04  2001-02-15 18  110  195  1108   1222    980   55  VINCENT
 141  01P1  2001-02-15 06  2001-02-16 12  150  165  1370   1400    990   40  WYLVA
 142  0110  2001-02-16 01  2001-02-18 00  174  210  1582   1670    995   30  200110
 143  0111  2001-02-20 06  2001-02-22 12  208  360  1647W  1500W   980   55  OMA
 144  0112  2001-02-22 08  2001-02-27 06  120  176  1362   1570    970   65  ABIGAIL
 145  0113  2001-02-25 20  2001-03-05 05  110  350  1630   1660W   935   90  PAULA
 146  0114  2001-02-28 20  2001-03-05 11  193  330  1375W  1340W   985   50  RITA
 147  0115  2001-03-05 12  2001-03-13 00  108  422  0395   0510    960   75  DERA
 148  0116  2001-04-02 18  2001-04-05 18  113  160  0767   0866    997   30  200116
 149  0117  2001-04-01 04  2001-04-08 10  096  210  0940   1108    950   80  WALTER
 150  0118  2001-04-01 01  2001-04-08 06  090  243  0607   0650    976   60  EVARISTE
 151  0119  2001-04-04 21  2001-04-11 12  135  266  1650   1705    975   60  SOSE
 152  0120  2001-04-16 00  2001-04-22 18  080  235  1093   1357    975   60  ALISTAIR
 153  0121  2001-06-20 00  2001-06-23 12  239  332  0339   0419   1000   40  200121
 154  01PA  2000-10-30 18  2000-11-01 06  250  280  1530   1620    995   50  HYBRID-LOW-01
 155  01SA  2000-11-28 07  2000-11-30 10  105  116  1065   1109   1001   30  TROP-LOW-01
 156  01PB  2000-12-04 20  2000-12-06 04  109  155  1353   1431    999   30  TROP-LOW-02
 157  01PC  2000-12-11 21  2000-12-15 12  175  240  1745   1680W   993   35  TROP-DEPRESSION-01
 158  01PD  2000-12-18 06  2000-12-19 12  220  250  1360W  1250W   995   35  TROP-DEPRESSION-02
 159  01SB  2001-01-22 06  2001-01-24 18  205  219  0484   0525    997   30  TROP-DEPRESSION-03
 160  01SC  2001-01-07 23  2001-01-10 01  100  140  1310   1325    999   30  TROP-LOW-03
 161  01PE  2001-01-18 18  2001-01-20 00  262  280  1553   1580   1002   40  HYBRID-LOW-02
 162  01SD  2001-01-31 21  2001-02-03 12  150  287  0673   0698    996   30  TROP-DEPRESSION-04
 163  01SE  2001-03-16 04  2001-03-17 09  098  104  1028   1058   1002   30  TROP-LOW-04
 164  01PF  2001-03-04 18  2001-03-08 08  273  297  1535   1590    995   54  SUBTROP-LOW-01
 165  01PG  2001-04-04 01  2001-04-05 05  110  122  1348   1370   1004   30  TROP-LOW-05
 166  01PH  2001-05-01 03  2001-05-03 12  190  250  1640W  1440W  1004   40  DEPRESSION-01
 167  01PI  2001-05-07 21  2001-05-09 12  180  240  1540W  1520W   999   35  DEPRESSION-02
 168  0201  2001-10-04 06  2001-10-08 06  096  142  0819   0848    998   30  200201
 169  0202  2001-10-24 18  2001-11-01 18  063  111  0780   0975    980   55  ALEX-ANDRE
 170  0203  2001-11-15 04  2001-11-24 04  050  120  1262   1470   1002       200203
 171  0204  2001-11-15 12  2001-11-23 12  090  132  0760   0833    998   30  200204
 172  0205  2001-11-25 06  2001-12-06 12  065  214  0851   0964    966   65  BESSI-BAKO
 173  0206  2001-11-29 18  2001-12-03 12  205  219  1600W  1570W   997   35  TRINA
 174  0207  2001-12-19 21  2002-01-05 05  105  430  1710   1620W   930   95  WAKA
 175  02P1  2001-12-22 18  2001-12-26 12  125  171  1575W  1569W   995   35  VICKY
 176  0208  2001-12-30 06  2002-01-03 06  198  230  0375   0442    980   55  CYPRIEN
 177  0209  2001-12-30 21  2002-01-06 06  115  188  1374   1394    985   50  BERNIE
 178  0210  2002-01-17 06  2002-01-26 12  088  336  0520   0754    910  115  DINA
 179  0211  2002-01-22 12  2002-01-28 12  095  228  0833   0901    965   70  EDDY
 180  0212  2002-01-30 18  2002-02-12 12  120  298  0774   0930    925  100  FRANCESCA
 181  0213  2002-02-02 05  2002-02-06 18  130  234  1192   1213    915  110  CHRIS
 182  0214  2002-02-11 04  2002-02-15 11  193  305  1561   1727W   970   65  CLAUDIA
 183  0215  2002-02-14 12  2002-02-22 18  142  264  0500   0640    920  105  GUILLAUME
 184  0216  2002-02-23 21  2002-02-26 00  180  232  1750   1769   1000   30  200216
 185  0217  2002-03-04 12  2002-03-07 23  190  250  1555   1720    985   50  DES
 186  0218  2002-03-05 06  2002-03-15 12  109  325  0504   0666    905  120  HARY
 187  0219  2002-03-13 21  2002-03-16 06  167  240  1610   1760   1002   30  200219
 188  0220  2002-03-22 12  2002-03-31 12  084  295  0724   0826    940   90  IKALA
 189  0221  2002-04-05 00  2002-04-13 12  100  295  0878   1011    954   80  DIANNE-JERY
 190  0222  2002-04-09 03  2002-04-15 12  065  161  0982   1295    985   50  BONNIE
 191  0223  2002-04-30 12  2002-05-11 18  070  159  0465   0680    965   70  KESINY
 192  0224  2002-05-08 04  2002-05-16 04  040  173  0943   1010    995   35  ERROL
 193  0225  2002-05-25 00  2002-05-29 18  075  104  1534   1559    995   50  UPIA
 194  02SA  2001-11-07 18  2001-11-13 04  069  140  0884   0935    998   30  TROP-LOW-01
 195  02PA  2001-11-27 18  2001-11-29 00  255  287  1570   1620   1000   40  TROP-LOW-02
 196  02PB  2001-12-08 18  2001-12-15 06  170  200  1750   1790W  1000   25  TROP-DEPRESSION-01
 197  02PC  2001-12-31 21  2002-01-07 02  085  140  1570   1687    998   30  TROP-DEPRESSION-02
 198  02PD  2002-01-15 06  2002-01-16 21  200  250  1590   1670   1000   30  TROP-DEPRESSION-03
 199  02PE  2002-01-20 21  2002-01-27 21  160  239  1640   1755    997   30  TROP-DEPRESSION-04
 200  02SB  2002-02-05 12  2002-02-06 06  207  218  0393   0407   1005   25  TROP-DISTURBANCE-01
 201  02SC  2002-02-09 02  2002-02-13 23  125  154  1300   1358    998   30  TROP-LOW-03
 202  02PF  2002-02-16 04  2002-02-23 02  160  195  1255   1405    995       TROP-LOW-04
 203  02PG  2002-02-17 06  2002-02-18 21  140  210  1790W  1765W   997   30  TROP-DEPRESSION-05
 204  02PH  2002-02-26 21  2002-02-27 21  160  160  1660   1670   1002   15  TROP-DEPRESSION-06
 205  02PI  2002-03-18 21  2002-03-23 21  150  250  1800   1690W  1002       TROP-DEPRESSION-07
 206  02PJ  2002-04-01 03  2002-04-02 06  181  191  1610   1640   1002       TROP-DEPRESSION-08
 207  02PK  2002-04-17 21  2002-04-23 06  125  171  1670   1740   1002       TROP-DEPRESSION-09
 208  02SD  2002-06-11 06  2002-06-15 06  103  200  0768   0810   1000   25  TROP-DISTURBANCE-02
 209  0301  2002-09-05 12  2002-09-08 06  029  043  0540   0635   1000   30  200301
 210  0302  2002-11-04 12  2002-11-13 00  075  120  0394   0627    997   30  ATANG
 211  0303  2002-11-15 06  2002-11-23 12  083  155  0512   0768    968   65  BOURA
 212  0304  2002-11-29 21  2002-12-06 06  100  240  1780   1686W   995   35  YOLANDE
 213  0305  2002-12-22 12  2002-12-30 12  082  306  0593   0717    956   75  CRYSTAL
 214  0306  2002-12-23 21  2003-01-01 00  080  202  1692   1760W   890  130  ZOE
 215  0307  2002-12-25 04  2003-01-04 04  030  110  0873   0941    996   30  200307
 216  0308  2002-12-30 12  2003-01-01 06  158  163  0391   0430    984   50  DELFINA
 217  03P1  2003-01-04 04  2003-01-16 02  100  163  1320   1370    995   30  BOM200208
 218  0309  2003-01-07 12  2003-01-13 12  107  297  0692   0747    975   60  EBULA
 219  0310  2003-01-09 21  2003-01-15 23  080  310  1797   1570W   950   80  AMI
 220  0311  2003-01-23 06  2003-02-01 12  115  342  0414   0760    984   50  FARI
 221  03S1  2003-01-19 03  2003-01-24 19  130  200  1166   1305    995   30  BOM200201
 222  0312  2003-01-19 21  2003-02-05 00  080  244  1496   1700    920  110  BENI
 223  0313  2003-01-25 21  2003-01-30 11  150  250  1762   1650W   990   40  CILLA
 224  0314  2003-02-04 22  2003-02-13 04  115  221  0910   1135    930  105  FIONA
 225  0315  2003-02-05 06  2003-02-12 23  110  280  1700W  1622W   920  110  DOVI
 226  0316  2003-02-08 06  2003-02-17 12  113  280  0534   0752    940   90  GERRY
 227  0317  2003-02-09 06  2003-02-16 00  122  239  0637   0800    965   70  HAPE
 228  0318  2003-02-11 00  2003-02-14 00  140  208  0812   0856    995   35  ISHA
 229  0319  2003-02-25 12  2003-03-03 18  205  238  0325   0430    927  100  JAPHET
 230  0320  2003-02-26 01  2003-03-01 04  170  197  1195   1226    985   45  GRAHAM
 231  0321  2003-03-02 06  2003-03-11 01  141  360  1067   1161    980   55  HARRIET
 232  0322  2003-03-02 20  2003-03-16 18  120  330  1480   1670W   915  115  ERICA
 233  0323  2003-03-04 00  2003-03-16 12  108  355  0636   0799    905  115  KALUNDE
 234  0324  2003-03-07 22  2003-03-12 18  106  173  1286   1420    980   55  CRAIG
 235  0325  2003-03-07 21  2003-03-14 17  134  350  1720   1570W   930   95  ESETA
 236  0326  2003-04-01 10  2003-04-08 12  100  219  1127   1206    900  120  INIGO
 237  03S2  2003-04-06 12  2003-04-12 06  236  420  0393   0760    985   65  LUMA
 238  0327  2003-04-13 02  2003-04-15 12  135  290  1793W  1700W   987   50  FILI
 239  0328  2003-05-02 12  2003-05-10 18  110  229  0488   0650    952   80  MANOU
 240  0329  2003-06-04 08  2003-06-09 08  105  182  1618   1710    950   80  GINA
 241  03P2  2003-06-05 06  2003-06-07 02  075  083  1529   1553    985   35  EPI
 242  03PA  2002-07-03 21  2002-07-05 06  030  040  1600   1640    999   25  TROP-DEPRESSION-01
 243  03PB  2002-10-21 09  2002-10-22 18  140  210  1670   1760   1002       TROP-DEPRESSION-02
 244  03PC  2002-12-10 21  2002-12-20 06  130  170  1730   1628W  1002   30  TROP-DEPRESSION-03
 245  03SA  2003-01-06 00  2003-01-12 06  165  280  0370   0450   1000   25  TROP-DISTURBANCE-01
 246  03SB  2003-02-04 04  2003-02-06 04  110  115  0940   0991    998       TROP-LOW-01
 247  03PD  2003-02-28 00  2003-03-01 04  234  260  1544   1580    997   40  HYBRID-LOW-01
 248  03PE  2003-01-30 18  2003-02-09 06  101  175  1765   1650W  1001   15  TROP-DEPRESSION-04
 249  03PF  2003-02-18 21  2003-02-21 21  170  245  1548W  1455W  1003       DEPRESSION-01
 250  03PG  2003-03-06 06  2003-03-08 21  166  210  1680   1758    998       TROP-DEPRESSION-05
 251  03SC  2003-05-08 04  2003-05-11 04  080  120  0930   1000   1003       TROP-LOW-02
 252  03PH  2003-06-24 16  2003-06-26 06  180  290  1490   1585   1003   45  HYBRID-LOW-02
 253  0401  2003-09-29 06  2003-10-04 18  043  070  0631   0675    990   45  ABAIMBA
 254  0402  2003-11-09 06  2003-11-22 12  059  138  0587   0787    935  100  BENI
 255  0403  2003-12-05 06  2003-12-21 12  115  362  0390   0623    968   65  CELA
 256  0404  2003-12-07 00  2003-12-12 00  076  152  0940   0994    960   75  JANA
 257  0405  2003-12-17 00  2003-12-21 05  091  134  1334   1376    970   65  DEBBIE
 258  0406  2003-12-29 06  2004-01-04 12  100  299  0579   0639    976   55  DARIUS
 259  0407  2003-12-28 21  2004-01-11 23  080  340  1800   1570W   915  115  HETA
 260  0408  2004-01-01 07  2004-01-06 12  163  217  1133   1250    992   40  KEN
 261  0409  2004-01-26 06  2004-02-12 06  152  308  0424   0580    974   60  ELITA
 262  0410  2004-01-27 12  2004-02-07 12  115  278  0615   0804    925  105  FRANK
 263  0411  2004-01-28 06  2004-02-01 18  062  194  0895   0961    978   55  LINDA
 264  0412  2004-02-08 18  2004-02-12 16  080  174  1377   1540    985   45  FRITZ
 265  0413  2004-02-21 21  2004-02-29 23  134  490  1676   1720W   935   90  IVY
 266  0414  2004-02-26 04  2004-03-02 19  180  242  1152   1235    935   95  MONTY
 267  0415  2004-02-29 00  2004-03-06 04  133  176  1175   1400    994   40  EVAN
 268  0416  2004-03-02 06  2004-03-15 06  122  285  0420   0708    895  125  GAFILO
 269  0417  2004-03-08 04  2004-03-13 12  130  227  0842   0913    972   60  NICKY-HELMA
 270  0418  2004-03-14 05  2004-03-28 10  100  216  1199   1355    910  115  FAY
 271  0419  2004-03-18 06  2004-03-24 18  145  236  1453   1645    985   55  GRACE
 272  0420  2004-03-20 22  2004-03-28 18  120  200  0890   1038    935   95  OSCAR-ITSENG
 273  0421  2004-03-13 04  2004-03-28 06  085  162  0515   0965   1002   26  200421
 274  0422  2004-04-04 21  2004-04-09 06  114  220  1675   1780W   995   32  200422
 275  0423  2004-05-05 12  2004-05-15 06  070  152  0644   0783    980   55  JUBA
 276  04PA  2003-12-30 18  2004-01-01 22  180  200  1590   1650    996   35  MONSOON-LOW-01
 277  04SA  2004-02-08 07  2004-02-12 00  154  200  1200   1240    994   30  TROP-LOW-01
 278  04PB  2004-03-02 00  2004-03-05 18  135  275  1496   1570    994   55  HYBRID-LOW-01
 279  04PC  2004-03-20 21  2004-03-22 18  185  245  1645   1723    994   25  TROP-DEPRESSION-01
 280  04PD  2004-03-30 06  2004-04-01 06  219  230  1730W  1627W  1002   40  TROP-DEPRESSION-02
 281  04PE  2004-04-10 00  2004-04-20 04  080  126  1383   1620   1002   30  TROP-LOW-02
 282  04PF  2004-04-01 21  2004-04-03 18  180  216  1515W  1450W  1000   30  TROP-DEPRESSION-03
 283  04PG  2004-04-07 08  2004-04-12 21  100  155  1620   1778   1002   25  TROP-DEPRESSION-04
 284  04PH  2004-05-02 00  2004-05-03 00  205  240  1540W  1530W   998       DEPRESSION-01
 285  0501  2004-08-31 06  2004-09-04 12  040  102  0879   0932    984   50  PHOEBE
 286  0502  2004-10-25 06  2004-10-29 12  071  095  0381   0611    996   30  200502
 287  0503  2004-11-07 06  2004-11-13 12  062  131  0687   0831    976   60  AROLA
 288  0504  2004-11-20 06  2004-11-30 12  073  176  0713   0788    905  120  BENTO
 289  0505  2004-12-02 04  2004-12-07 02  060  160  1010   1128    998   30  200505
 290  05P1  2004-12-22 00  2004-12-27 06  160  295  1475W  1450W   989   40  JUDY
 291  0506  2004-12-23 00  2004-01-02 00  075  299  0678   0874    945   85  CHAMBO
 292  0507  2004-12-31 04  2005-01-03 06  140  175  1212   1293    990   45  RAYMOND
 293  0508  2005-01-03 06  2005-01-15 12  080  270  1563   1760    960   75  KERRY
 294  0509  2005-01-07 04  2005-01-10 04  116  165  0963   1011    988   45  SALLY
 295  0510  2005-01-13 22  2005-01-19 04  133  150  0962   1230    998   30  200510
 296  0511  2005-01-17 12  2005-01-22 12  093  175  0579   0848    988   40  DAREN
 297  0512  2005-01-17 06  2005-01-25 00  095  355  0417   0610    940   90  ERNEST
 298  0513  2005-01-23 09  2005-01-26 02  150  168  0988   1102    988   45  TIM
 299  05P2  2005-01-26 06  2005-02-02 18  150  252  1630   1745W   990   40  LOLA
 300  05S1  2005-01-26 12  2005-02-02 18  205  309  0405   0515    995   35  FELAPI
 301  0514  2005-01-28 12  2005-02-05 12  065  355  0573   0744    973   60  GERARD
 302  0515  2005-02-02 06  2005-02-08 12  139  300  1682W  1470W   915  115  MEENA
 303  0516  2005-02-05 08  2005-02-14 12  138  230  1372   1553    965   85  HARVEY
 304  0517  2005-02-05 02  2005-02-10 04  153  165  1159   1175    990   45  VIVIENNE
 305  0518  2005-02-10 21  2005-02-18 12  110  260  1700W  1585W   935  110  NANCY
 306  0519  2005-02-10 21  2005-02-23 00  090  500  1795W  1440W   915  125  OLAF
 307  0520  2005-02-24 21  2005-03-05 12  083  270  1790W  1480W   900  125  PERCY
 308  0521  2005-02-27 21  2005-03-08 00  110  242  1750   1570W   990   40  RAE
 309  0522  2005-03-05 02  2005-03-19 22  112  159  1264   1490    925  120  INGRID
 310  0523  2005-03-09 01  2005-03-17 03  126  213  1018   1195    960   80  WILLY
 311  0524  2005-03-21 06  2005-03-29 12  128  302  0583   0665    980   55  HENNIE
 312  0525  2005-03-29 18  2005-04-07 06  103  315  0656   0844    975   60  ISANG
 313  0526  2005-04-01 04  2005-04-14 12  098  293  0634   1030    905  120  ADELINE-JULIET
 314  05P3  2005-04-20 21  2005-04-23 12  150  260  1780   1570W   995   40  SHEILA
 315  05PA  2004-10-28 21  2004-10-30 18  070  090  1590   1640   1001   25  TROP-DEPRESSION-01
 316  05SA  2004-12-11 06  2004-12-11 12  258  260  0401   0417   1000   25  TROP-DISTURBANCE-01
 317  05PB  2004-12-03 21  2004-12-14 18  110  200  1680   1800   1000   30  TROP-DEPRESSION-02
 318  05PC  2004-12-05 21  2004-12-10 09  110  220  1800   1670W  1003   25  TROP-DEPRESSION-03
 319  05SB  2005-01-04 06  2005-01-05 06  204  239  0407   0468    998   30  TROP-DISTURBANCE-02
 320  05PD  2005-01-19 06  2005-01-25 18  130  195  1425   1505    997   40  TROP-LOW-01
 321  05SC  2005-02-04 12  2005-02-08 18  162  300  0535   0591    997   35  TROP-DEPRESSION-04
 322  05SD  2005-02-08 18  2005-02-17 12  179  229  0515   0595   1000   25  TROP-DISTURBANCE-03
 323  05SE  2005-02-24 12  2005-02-28 06  084  161  0830   0846    998   30  TROP-DEPRESSION-05
 324  05PE  2005-02-26 00  2005-02-27 06  195  215  1425W  1385W   998   30  TROP-DEPRESSION-06
 325  05PF  2005-02-27 21  2005-03-04 23  110  190  1600   1790   1001       TROP-DEPRESSION-07
 326  05PG  2005-04-14 22  2005-04-15 18  093  105  1440   1485    993   45  TROP-LOW-02
 327  05PH  2005-04-14 21  2005-05-01 18  120  200  1615   1740W  1000   30  TROP-DEPRESSION-08
 328  05PI  2005-04-26 06  2005-05-01 18  090  150  1670   1740   1007       TROP-DEPRESSION-09
 329  05PJ  2005-04-29 21  2005-05-01 18  125  160  1795   1780W  1006       TROP-DEPRESSION-10
 330  0601  2005-10-12 06  2005-10-15 18  052  139  0796   0872    997   30  200601
 331  0602  2005-11-05 04  2005-11-08 12  083  168  0818   0971    995   30  200602
 332  0603  2005-11-18 04  2005-11-28 12  035  148  0825   0945    930  100  BERTIE-ALVIN
 333  0604  2005-12-21 18  2005-12-29 06  088  205  0605   0919    998   30  200604
 334  0605  2006-01-07 06  2006-01-10 15  133  236  1161   1243    960   75  CLARE
 335  0606  2006-01-06 18  2006-01-15 00  130  400  1750   1670W   987   45  TAM
 336  0607  2006-01-13 18  2006-01-15 18  140  270  1741W  1670W   975   60  URMIL
 337  0608  2006-01-17 04  2006-01-23 06  155  232  1102   1260    965   65  DARYL
 338  0609  2006-01-24 00  2006-02-06 12  176  377  0381   0586    946   90  BOLOETSE
 339  0610  2006-01-26 18  2006-02-02 18  162  310  1474   1750    955   80  JIM
 340  0611  2006-02-09 21  2006-02-19 06  138  340  1770W  1620W   965   70  VAIANU
 341  0612  2006-02-19 06  2006-02-21 00  176  194  0552   0581    995   40  200612
 342  0613  2006-02-22 00  2006-02-24 22  105  120  1435   1475    985   50  KATE
 343  0614  2006-02-23 00  2006-03-03 12  099  195  0760   0818    910  115  CARINA
 344  0615  2006-02-26 00  2006-02-28 06  123  220  1141   1163    986   40  EMMA
 345  0616  2006-03-02 06  2006-03-10 12  130  375  0522   0725    980   60  DIWA
 346  0617  2006-03-16 06  2006-03-21 05  133  198  1389   1600    915  110  LARRY
 347  0618  2006-03-17 21  2006-03-28 06  143  370  1537   1770    950   85  WATI
 348  0619  2006-03-19 09  2006-03-27 11  114  227  1081   1185    915  105  FLOYD
 349  0620  2006-03-23 21  2006-03-31 03  146  240  1148   1288    910  115  GLENDA
 350  0621  2006-04-04 03  2006-04-07 18  139  217  1147   1165    970   55  HUBERT
 351  0622  2006-04-06 00  2006-04-16 12  068  178  0827   0962    987   45  ELIA
 352  0623  2006-04-16 11  2006-04-26 06  095  140  1294   1514    905  135  MONICA
 353  06SA  2005-09-05 06  2005-09-06 12  029  080  0835   0887   1001   25  TROP-DISTURBANCE-01
 354  06SB  2005-11-06 12  2005-11-08 06  084  103  0771   0776    998   30  TROP-DEPRESSION-01
 355  06SC  2006-01-03 18  2006-01-07 06  212  258  0320   0378   1000   25  TROP-DISTURBANCE-02
 356  06PA  2006-01-10 21  2006-01-13 06  152  235  1720W  1685W   996   30  TROP-DEPRESSION-02
 357  06PB  2006-02-02 06  2006-02-04 06  200  250  1710W  1680W   998   30  TROP-DEPRESSION-03
 358  06PC  2006-02-08 21  2006-02-10 21  159  194  1738W  1716W  1000   30  TROP-DEPRESSION-04
 359  06PD  2006-02-19 21  2006-02-25 18  110  248  1660   1775    998   25  TROP-DEPRESSION-05
 360  06SD  2006-03-04 06  2006-03-04 12  127  157  0554   0576   1000   25  TROP-DISTURBANCE-03
 361  06SE  2006-02-28 18  2006-03-07 04  081  145  1180   1304    998   30  TROP-LOW-01
 362  06SF  2006-03-26 03  2006-03-27 06  125  155  1019   1020    996   30  TROP-LOW-02
 363  06PE  2006-03-01 03  2006-03-06 06  190  295  1520   1600    995   55  HYBRID-LOW-01
 364  0701  2006-10-20 21  2006-10-28 06  095  162  1655   1721    930   95  XAVIER
 365  0702  2006-11-17 06  2006-11-27 18  065  144  1580   1760    960   75  YANI
 366  0703  2006-11-26 18  2006-12-03 06  064  181  0415   0474    994   35  ANITA
 367  0704  2006-11-29 09  2006-12-04 21  060  145  1600   1660    997   30  200704
 368  0705  2006-12-17 00  2006-12-26 12  091  199  0436   0658    915  110  BONDO
 369  0706  2006-12-29 12  2007-01-04 12  120  209  0483   0578    975   60  CLOVIS
 370  0707  2006-12-31 06  2007-01-03 12  112  224  1140   1217    982   45  ISOBEL
 371  0708  2007-01-17 21  2007-01-26 00  119  370  1770W  1500W   975   60  ZITA
 372  0709  2007-01-21 07  2007-01-28 18  119  400  1764W  1300W   975   60  ARTHUR
 373  0710  2007-01-28 06  2007-02-12 18  079  378  0492   0684    930  100  DORA
 374  0711  2007-02-01 21  2007-02-05 12  100  223  1750   1689W   997   30  200711
 375  0712  2007-01-31 06  2007-02-07 03  110  165  1356   1423    980   55  NELSON
 376  0713  2007-02-06 00  2007-02-11 18  151  234  0501   0647    980   60  ENOK
 377  0714  2007-02-12 00  2007-02-23 12  103  267  0326   0700    930  100  FAVIO
 378  0715  2007-02-20 12  2007-03-04 12  138  332  0484   0748    935   95  GAMEDE
 379  0716  2007-02-20 21  2007-02-28 12  096  298  0772   0920    960   75  HUMBA
 380  0717  2007-02-26 01  2007-03-10 00  105  236  1186   1357    910  105  GEORGE
 381  07P1  2007-02-26 17  2007-03-07 00  127  176  1511   1594    990   35  ODETTE
 382  0718  2007-03-05 00  2007-03-12 06  125  203  1056   1195    954   75  JACOB
 383  0719  2007-03-10 12  2007-03-17 06  129  180  0471   0618    935   95  INDLALA
 384  0720  2007-03-24 06  2007-03-28 00  160  194  1152   1213    942   85  KARA
 385  0721  2007-03-25 00  2007-03-31 18  120  220  1575   1683    975   60  BECKY
 386  0722  2007-03-29 12  2007-04-08 06  128  190  0388   0690    930  105  JAYA
 387  0723  2007-04-03 06  2007-04-06 18  147  284  1765   1671W   980   50  CLIFF
 388  0724  2007-05-16 00  2007-05-21 18  087  111  1422   1572    992   40  PIERRE
 389  07SA  2006-10-18 00  2006-10-23 12  028  103  0503   0627   1002   25  TROP-DISTURBANCE-01
 390  07SB  2006-12-25 12  2006-12-28 18  067  110  0539   0675   1000   25  TROP-DISTURBANCE-02
 391  07SC  2007-01-06 18  2007-01-08 12  186  230  0410   0429    999   25  TROP-DISTURBANCE-03
 392  07PA  2007-01-09 21  2007-01-17 21  121  239  1693W  1490W  1000   30  TROP-DEPRESSION-01
 393  07PB  2007-02-05 18  2007-02-08 18  167  207  1465   1525    995   45  TROP-LOW-01
 394  07SD  2007-03-13 12  2007-03-17 06  146  192  0740   0770   1000   25  TROP-DISTURBANCE-04
 395  07SE  2007-03-20 09  2007-03-21 19  345  366  0367   0412              SUBTROP-DISTURBANCE-01
 396  07PC  2007-03-21 20  2007-03-26 06  142  220  1742   1765    998   30  TROP-DEPRESSION-02
 397  07SF  2007-04-09 12  2007-04-12 12  217  360  0369   0460    998   45  SUBTROP-DEPRESSION-01
 398  0801  2007-07-27 18  2007-07-31 06  049  124  0856   0917    998   30  200801
 399  0802  2007-11-12 00  2007-11-19 21  065  128  1447   1521    970   75  GUBA
 400  0803  2007-11-13 06  2007-11-22 12  056  154  0867   0928    980   50  LEE-ARIEL
 401  0804  2007-11-17 21  2007-11-24 12  059  140  0655   0772    976   60  BONGWE
 402  0805  2007-12-03 18  2007-12-10 06  115  200  1758   1740W   925  105  DAMAN
 403  0806  2007-12-12 12  2007-12-21 12  133  226  0520   0706    992   40  CELINA
 404  0807  2007-12-18 12  2007-12-21 12  132  203  0819   0893    995   35  DAMA
 405  0808  2007-12-27 06  2008-01-02 00  112  226  1083   1180    964   60  MELANIE
 406  0809  2007-12-30 12  2008-01-05 12  181  268  0399   0435    994   35  ELNUS
 407  0810  2008-01-03 00  2008-01-06 15  130  144  1275   1413    975   50  HELEN
 408  0811  2008-01-07 18  2008-01-12 18  189  250  1765W  1660W   980   50  ELISA
 409  0812  2008-01-15 21  2008-01-20 18  144  300  1630   1754    930   95  FUNA
 410  0813  2008-01-24 06  2008-02-01 12  135  248  0443   0578    972   60  FAME
 411  0814  2008-01-26 12  2008-02-03 00  116  380  0540   0640    950   85  GULA
 412  0815  2008-01-26 18  2008-02-09 18  120  440  1705   1640W   945   85  GENE
 413  0816  2008-02-04 06  2008-02-25 06  123  292  0515   0867    906  120  HONDO
 414  0817  2008-02-04 00  2008-02-10 00  154  174  1011   1092    990   30  200817
 415  0818  2008-02-07 06  2008-02-22 12  130  234  0416   0650    930  100  IVAN
 416  0819  2008-02-12 12  2008-02-20 12  144  256  1134   1214    944   80  NICHOLAS
 417  0820  2008-02-28 06  2008-03-01 06  173  261  1476   1624    999   30  200820
 418  0821  2008-02-27 06  2008-03-07 06  146  251  1090   1301    972   60  OPHELIA
 419  0822  2008-03-04 18  2008-03-15 00  117  258  0389   0545    930  105  JOKWE
 420  0823  2008-03-07 00  2008-03-12 12  117  256  0781   0890    930  100  KAMBA
 421  0824  2008-03-19 21  2008-03-23 21  174  225  1610   1647    998   30  200824
 422  0825  2008-03-20 12  2008-03-26 12  145  182  0558   0630    994   35  LOLA
 423  0826  2008-03-24 02  2008-03-30 06  123  260  1029   1114    938   90  PANCHO
 424  0827  2008-04-17 18  2008-04-19 23  142  245  1600   1730    998   30  200827
 425  0828  2008-04-20 21  2008-04-25 00  085  179  0987   1068    980   50  ROSIE
 426  0829  2008-04-22 06  2008-04-25 08  080  136  0903   1001    988   40  DURGA
 427  08SA  2007-07-21 18  2007-07-24 12  068  092  0682   0739          26  TROP-DISTURBANCE-01
 428  08SB  2007-10-11 06  2007-10-14 06  085  114  0539   0615   1005   25  TROP-DISTURBANCE-02
 429  08PA  2007-11-24 18  2007-12-02 21  150  240  1650   1530W   999   30  TROP-DEPRESSION-01
 430  08SC  2007-12-31 00  2008-01-02 06  080  160  0972   1132    994   30  TROP-LOW-01
 431  08PB  2007-12-27 00  2008-01-04 04  190  270  1510   1630    995   50  HYBRID-LOW-01
 432  08PC  2007-12-10 22  2007-12-16 06  120  250  1660W  1500W  1000   30  TROP-DEPRESSION-02
 433  08PD  2008-01-09 21  2008-01-14 06  130  160  1690   1789W   998   25  TROP-DEPRESSION-03
 434  08PE  2008-01-12 21  2008-01-13 21  198  205  1745W  1742W   999   25  TROP-DEPRESSION-04
 435  08PF  2008-01-19 06  2008-01-24 18  140  270  1740W  1656W   984   50  TROP-DEPRESSION-05
 436  08PG  2008-02-11 12  2008-02-13 06  206  280  1462   1600          50  MONSOON-LOW-01
 437  08PH  2008-04-04 16  2008-04-07 06  155  252  1590   1743   1002   30  TROP-DEPRESSION-06
 438  0901  2008-10-16 12  2008-10-23 12  054  127  0488   0692    985   45  ASMA
 439  0902  2008-11-19 00  2008-11-21 00  103  158  0964   1063    990   50  ANIKA
 440  0903  2008-11-19 06  2008-11-21 00  094  105  0784   0915    994   35  BERNARD
 441  0904  2008-12-15 12  2008-12-21 06  094  154  0600   0698    985   50  CINDA
 442  0905  2008-12-17 06  2008-12-29 08  125  179  1076   1288    948   95  BILLY
 443  0906  2009-01-08 06  2009-01-18 06  130  626  0669   1275    946   55  DONGO
 444  0907  2009-01-09 06  2009-01-12 09  147  180  1367   1427    987   45  CHARLOTTE
 445  0908  2009-01-17 12  2009-01-21 18  153  307  0490   0552    994   35  ERIC
 446  0909  2009-01-18 06  2009-01-27 18  202  425  0407   0672    927  100  FANELE
 447  0910  2009-01-25 00  2009-01-27 06  184  225  1151   1189    980   50  DOMINIC
 448  0911  2008-01-25 21  2008-01-31 21  154  244  1791   1761W   993   35  HETTIE
 449  0912  2009-01-29 23  2009-02-01 18  158  183  1457   1490    988   40  ELLIE
 450  0913  2009-02-01 12  2009-02-12 18  151  426  0517   0723    934   95  GAEL
 451  0914  2009-02-03 00  2009-02-15 12  152  217  0723   1260    983   50  FREDDY
 452  0915  2009-02-14 21  2009-02-24 00  176  477  1595   1798    989   40  INNIS
 453  0916  2009-02-21 06  2009-02-26 18  126  277  0634   0787    980   55  HINA
 454  0917  2009-03-01 00  2009-03-05 18  110  210  0959   1078    998   40  GABRIELLE
 455  0918  2009-03-05 00  2009-03-13 12  129  247  1466   1560    925  115  HAMISH
 456  0919  2009-03-08 06  2009-03-10 12  144  197  0808   0886    997   30  200919
 457  0920  2009-03-10 18  2009-03-15 00  200  420  1600W  1430W   980   55  JONI
 458  0921  2009-03-16 21  2009-03-22 00  207  450  1633W  1200W   973   50  KEN
 459  0922  2009-03-17 06  2009-03-27 06  121  259  0758   1185    958   90  ILSA
 460  0923  2009-03-22 18  2009-03-26 18  141  225  1535   1650    980   55  JASPER
 461  0924  2009-03-24 02  2009-03-29 06  207  238  0363   0430    974   60  IZILDA
 462  0925  2009-03-31 21  2009-04-09 00  145  389  1765   1581W   975   60  LIN
 463  0926  2009-04-03 23  2009-04-14 18  111  620  0486   0682    957   60  JADE
 464  0927  2009-04-26 06  2009-04-29 12  053  076  1325   1352    998   35  KIRRILY
 465  09PA  2009-01-12 09  2009-01-14 06  132  185  1606   1755    999   30  TROP-DEPRESSION-01
 466  09PB  2009-01-19 21  2009-01-23 21  130  200  1645W  1570W  1005   30  TROP-DEPRESSION-02
 467  09SA  2002-02-26 06  2002-02-28 12  133  202  1185   1250    996   33  TROP-LOW-01
 468  09PC  2009-02-01 21  2009-02-05 12  130  246  1606   1663    997   30  TROP-DEPRESSION-03
 469  09PD  2009-03-18 20  2009-03-22 12  145  250  1530   1727    997   40  TROP-LOW-02
 470  09PE  2009-04-16 00  2009-04-25 00  280  408  1590   1651    988   45  SUBTROP-LOW-01
 471  09PF  2009-04-15 06  2009-04-18 18  295  344  1703W  1652W  1004       SUBTROP-LOW-02
 472  1001  2009-11-14 06  2009-11-20 12  128  337  0653   0812    950   85  ANJA
 473  1002  2009-11-22 06  2009-11-25 18  085  120  0478   0563    997   40  BONGANI
 474  1003  2009-12-06 00  2009-12-14 12  085  187  0607   0848    927  105  CLEO
 475  1004  2009-12-11 21  2009-12-20 18  115  376  1715   1597W   975   60  MICK
 476  1005  2009-12-13 06  2009-12-27 00  100  153  0618   0841    980   55  DAVID
 477  1006  2009-12-10 06  2009-12-24 00  102  270  1204   1360    927  110  LAURENCE
 478  1007  2010-01-02 00  2010-01-17 12  096  553  0673   1124    905  120  EDZANI
 479  10P1  2010-01-15 21  2010-01-22 06  111  148  1370   1473    994   35  NEVILLE
 480  1008  2010-01-19 06  2010-01-22 18  116  184  1218   1246    980   60  MAGDA
 481  1009  2010-01-22 18  2010-01-30 00  157  184  1357   1508    980   55  OLGA
 482  1010  2010-01-27 06  2010-01-30 00  141  203  1722W  1609W   990   40  NISHA
 483  1011  2010-01-26 18  2010-01-30 12  156  301  0580   0622    995   35  201011
 484  1012  2010-01-29 12  2010-02-08 18  110  410  1768   1200W   925  100  OLI
 485  1013  2010-02-01 18  2010-02-03 12  193  223  0428   0508    994   40  FAMI
 486  1014  2010-02-06 21  2010-02-11 18  086  215  1658W  1588W   960   75  PAT
 487  1015  2010-02-09 12  2010-02-19 12  120  408  1746   1659W   940   90  RENE
 488  1016  2010-02-15 06  2010-02-21 23  093  213  0585   0623    930  110  GELANE
 489  1017  2010-02-20 12  2010-03-04 06  060  178  1660W  1582W   995   35  SARAH
 490  1018  2010-03-09 06  2010-03-11 12  195  211  0475   0509    987   55  HUBERT
 491  1019  2010-03-09 18  2010-03-18 12  106  440  1797W  1550W   930   95  TOMAS
 492  1020  2010-03-09 18  2010-03-20 21  120  207  1473   1695    925  115  ULUI
 493  1021  2010-03-21 23  2010-03-26 18  085  212  0851   0899    965   70  IMANI
 494  1022  2010-03-26 06  2010-04-01 00  095  148  1336   1369    982   55  PAUL
 495  1023  2010-04-02 06  2010-04-11 18  110  194  0753   0924    976   65  ROBYN
 496  1024  2010-04-21 05  2010-04-28 18  101  191  0899   1164    987   55  SEAN
 497  10S1  2010-05-25 14  2010-05-29 11  234  305  0425   0475    996   60  JOEL
 498  10SA  2009-08-17 08  2009-08-20 02  071  151  0831   0857              TROP-DISTURBANCE-01
 499  10SB  2009-11-07 12  2009-11-10 06  030  045  0720   0744   1002   25  TROP-DISTURBANCE-02
 500  10SC  2010-01-15 06  2010-01-15 12  223  227  0510   0513   1005   25  TROP-DISTURBANCE-03
 501  10SD  2010-01-02 18  2010-01-04 18  129  142  1293   1300    991   25  TROP-LOW-01
 502  10PA  2010-01-25 06  2010-01-28 06  110  190  1790W  1740W   999   25  TROP-DISTURBANCE-04
 503  10PB  2010-02-02 06  2010-02-04 12  150  270  1460W  1450W   997   35  TROP-DISTURBANCE-05
 504  10PC  2010-03-29 06  2010-04-04 00  150  300  1670   1690W   996   40  TROP-DISTURBANCE-06
 505  10PD  2010-05-06 00  2010-05-13 06  250  450  1600   1710    983   50  SUBTROP-LOW-01
 506  1101  2010-10-25 12  2010-10-29 08  100  151  0768   0864    997   30  201101
 507  1102  2010-10-30 00  2010-11-04 06  075  153  0948   0983    986   50  ANGGREK
 508  1103  2010-11-28 23  2010-12-04 11  114  230  0853   0946    973   70  ABELE
 509  1104  2010-12-24 12  2010-12-25 06  166  197  1442   1474    993   40  TASHA
 510  1105  2011-01-05 21  2011-01-18 06  170  388  1635   1765    970   65  VANIA
 511  1106  2011-01-11 00  2011-01-23 06  149  201  0924   1145    986   40  VINCE
 512  1107  2011-01-13 00  2011-01-19 12  124  510  1496   1720W   957   85  ZELIA
 513  1108  2011-01-19 06  2011-01-30 12  116  550  1717   1580W   930  100  WILMA
 514  1109  2011-01-22 06  2011-01-31 00  153  202  1429   1608    984   55  ANTHONY
 515  1110  2011-01-21 06  2011-01-30 06  143  314  1077   1295    945   90  BIANCA
 516  1111  2011-01-26 21  2011-02-05 18  123  256  1350   1768W   922  115  YASI
 517  1112  2011-02-05 00  2011-02-08 12  222  390  1754   1695W   985   50  ZAKA
 518  1113  2011-02-09 06  2011-03-02 00  135  414  0433   0856    953   90  BINGIZA
 519  1114  2011-02-10 19  2011-02-16 06  187  234  0849   1077   1000   30  201114
 520  1115  2011-02-15 00  2011-03-01 00  124  322  0992   1314    968   65  CARLOS
 521  1116  2011-02-15 06  2011-02-23 06  187  304  1019   1127    962   70  DIANNE
 522  1117  2011-02-14 06  2011-03-06 00  138  705  1660   0685W   940   90  ATU
 523  1118  2011-03-14 06  2011-03-25 06  110  302  0567   0870    992   40  CHERONO
 524  1119  2011-03-22 06  2011-04-05 00  172  601  1789   1122W   967   70  BUNE
 525  1120  2011-03-30 00  2011-04-04 12  106  163  1224   1325    994   30  201120
 526  1121  2011-04-14 06  2011-04-18 12  099  127  1231   1264    986   55  ERROL
 527  11PA  2010-11-24 18  2010-11-30 06  143  248  1642   1793W   999   35  TROP-DISTURBANCE-01
 528  11SA  2010-12-30 06  2011-01-03 04  150  217  1070   1305    993   30  TROP-LOW-01
 529  11SB  2010-12-31 21  2011-01-03 12  107  136  0799   0857    996   30  TROP-DISTURBANCE-02
 530  11SC  2011-01-14 20  2011-01-16 08  160  170  0488   0550              TROP-DISTURBANCE-03
 531  11PB  2011-01-21 06  2011-01-22 00  218  250  1630   1686    996   30  TROP-DISTURBANCE-04
 532  11SD  2011-01-30 18  2011-01-31 06  291  305  0499   0523    998   25  TROP-DISTURBANCE-05
 533  11SE  2011-02-15 18  2011-02-18 12  148  201  0620   0632   1000   25  TROP-DISTURBANCE-06
 534  11SF  2011-02-25 06  2011-02-28 00  139  187  1232   1260    992       TROP-LOW-02
 535  11PC  2011-03-07 06  2011-03-09 06  157  211  1572   1740   1000   40  TROP-DISTURBANCE-07
 536  11SG  2011-03-29 00  2011-03-31 06  074  110  0878   0891   1004   25  TROP-DISTURBANCE-08
 537  11PD  2011-04-09 21  2011-04-11 21  173  239  1700   1756   1005       TROP-DISTURBANCE-09
 538  11SH  2011-04-12 00  2011-04-17 06  248  451  0470   0626    985   50  TROP-DISTURBANCE-10
 539  11PE  2011-04-15 18  2011-04-16 21  207  250  1596   1659    999   35  TROP-DISTURBANCE-11
 540  1201  2011-11-30 12  2011-12-12 00  021  223  0874   1082    952   95  ALENGA
 541  1202  2011-12-02 12  2011-12-11 00  120  171  0612   0706    996   35  201202
 542  12P1  2011-12-19 12  2011-12-29 18  125  376  1532   1746    992   30  FINA
 543  1203  2011-12-19 00  2011-12-28 18  092  143  1311   1379    993   40  GRANT
 544  1204  2011-12-25 12  2012-01-05 12  069  251  0730   0955    956   90  BENILDE
 545  1205  2012-01-05 18  2012-01-15 06  155  255  0404   0549    993   40  CHANDA
 546  1206  2012-01-09 06  2012-01-13 11  118  254  1175   1196    982   55  HEIDI
 547  12S1  2012-01-11 18  2012-01-16 12  238  275  0341   0532    990   40  DANDO
 548  1207  2012-01-16 06  2012-01-27 18  097  602  0638   1528    964   75  ETHEL
 549  1208  2012-01-16 18  2012-02-02 12  154  374  0377   0562    933  120  FUNSO
 550  1209  2012-01-21 06  2012-02-03 05  126  300  1078   1197    974   65  IGGY
 551  1210  2012-01-31 12  2012-02-17 06  149  264  1404   1740W   937  115  JASMINE
 552  1211  2012-02-05 12  2012-02-08 12  167  308  1760   1541W   982   55  CYRIL
 553  1212  2012-02-07 18  2012-02-21 17  126  265  0409   0717    929  125  GIOVANNA
 554  1213  2012-02-11 06  2012-02-24 06  112  401  0617   1089    989   45  HILWA
 555  1214  2012-02-24 18  2012-03-10 18  130  307  0339   0577    978   60  IRINA
 556  1215  2012-02-23 18  2012-03-04 06  108  169  0629   0752    996   35  201215
 557  1216  2012-03-05 06  2012-03-15 12  112  330  0793   1043    967   75  KOJI-JONI
 558  1217  2012-03-08 00  2012-03-19 12  122  332  1126   1293    952   95  LUA
 559  1218  2012-03-31 18  2012-04-03 06  157  298  1660   1745W   985   50  DAPHNE
 560  1219  2012-05-04 06  2012-05-11 18  051  100  1243   1300   1000   30  201219
 561  1220  2012-06-02 00  2012-06-08 18  034  103  0539   0671    982   55  KUENA
 562  1221  2012-06-27 00  2012-07-01 05  084  117  1514   1550    996   35  201221
 563  1301  2012-10-11 06  2012-10-18 18  061  165  0527   0733    941  110  ANAIS
 564  1302  2012-11-16 00  2012-11-26 00  048  153  0716   0917    982   55  BOLDWIN
 565  1303  2012-12-03 18  2012-12-16 18  075  426  0728   1157    937  115  CLAUDIA
 566  1304  2012-12-09 06  2012-12-26 18  124  416  1703   1715W   929  125  EVAN
 567  1305  2012-12-25 06  2013-01-07 06  054  409  1600   1774W   941  110  FREDA
 568  1306  2012-12-26 12  2012-12-31 23  139  326  1079   1153    989   45  MITCHELL
 569  1307  2012-12-27 00  2013-01-07 18  072  637  0541   0824    967   75  DUMILE
 570  1308  2013-01-04 18  2013-01-24 18  096  755  1095   1437W   937  115  NARELLE
 571  1309  2012-12-26 18  2013-01-21 00  038  159  0583   0879    996   35  EMANG
 572  1310  2013-01-14 18  2013-01-29 06  097  430  1650   1296W   959   85  GARRY
 573  1311  2013-01-17 12  2013-01-30 06  142  480  1347   1590    993   35  OSWALD
 574  1312  2013-01-19 06  2013-01-26 06  163  224  1115   1227    996   35  PETA
 575  1313  2013-01-22 12  2013-02-11 06  099  655  0505   1778    937  115  FELLENG
 576  1314  2013-02-07 06  2013-02-14 00  140  262  1660W  1460W   989   45  HALEY
 577  1315  2013-02-07 00  2013-02-18 18  076  269  0794   0935    956   90  GINO
 578  1316  2013-02-13 12  2013-03-01 00  163  275  0378   0632    948  100  HARUNA
 579  1317  2013-02-20 12  2013-03-02 12  120  327  1121   1237    952   95  RUSTY
 580  1318  2013-02-19 06  2013-03-04 12  103  156  0978   1132    993   40  201318
 581  1319  2013-03-04 00  2013-03-17 12  148  426  1472   1704    941  110  SANDRA
 582  1320  2013-03-09 18  2013-03-20 18  110  197  1351   1543    982   55  TIM
 583  1321  2013-04-01 18  2013-04-17 00  076  214  0579   0781    959   85  IMELDA
 584  1322  2013-04-04 18  2013-04-13 06  042  304  0927   1063    967   75  VICTORIA
 585  1323  2013-04-24 18  2013-05-02 12  083  141  1392   1569    974   65  ZANE
 586  1324  2013-05-03 00  2013-05-14 18  038  107  0782   0887    993   40  JAMALA
 587  1401  2013-10-20 00  2013-10-29 18  063  150  0540   0872    996   35  201401
 588  1402  2013-11-19 06  2013-11-30 12  089  167  1133   1395    989   45  ALESSIA
 589  1403  2013-12-11 18  2013-12-29 00  065  230  0572   0828    926  130  AMARA
 590  1404  2013-12-14 18  2013-12-26 12  070  350  0777   1104    918  140  BRUCE
 591  1405  2013-12-26 00  2014-01-02 00  122  319  1171   1358    959   85  CHRISTINE
 592  1406  2013-12-26 18  2014-01-07 00  091  388  0426   0559    941  110  BEJISA
 593  1407  2014-01-01 06  2014-01-14 12  123  324  1770W  1647W   929  125  IAN
 594  1408  2014-01-06 06  2014-01-17 06  101  447  0733   1067    937  115  COLIN
 595  1409  2014-01-12 06  2014-01-22 06  106  258  0338   0478    989   45  DELIWE
 596  1410  2014-01-13 00  2014-01-26 12  090  606  1577   1426W   987   40  JUNE
 597  1411  2014-01-21 12  2014-01-31 12  112  233  1462   1722    982   55  DYLAN
 598  1412  2014-01-31 00  2014-02-06 06  136  265  1505   1670    985   50  EDNA
 599  14S1  2014-02-01 06  2014-02-11 18  135  238  1213   1325    992   30  FLETCHER
 600  1413  2014-02-02 12  2014-02-08 12  114  351  0523   0601    982   55  EDILSON
 601  1414  2014-02-03 00  2014-02-17 06  121  340  0591   0757    978   60  FOBANE
 602  1415  2014-02-12 00  2014-02-23 12  132  380  0367   0490    971   65  GUITO
 603  1416  2014-02-24 21  2014-03-05 18  158  510  1749   1500W   985   50  KOFI
 604  1417  2014-03-05 18  2014-03-28 18  086  217  0885   1416    918  140  GILLIAN
 605  1418  2014-03-06 06  2014-03-16 12  133  420  1662   1740    967   75  LUSI
 606  1419  2014-03-03 18  2014-03-13 18  085  189  1497   1689    996   35  HADI
 607  1420  2014-03-14 00  2014-03-20 12  103  272  1670W  1584W   996   35  MIKE
 608  1421  2014-03-25 00  2014-04-05 00  107  216  0348   0459    922  135  HELLEN
 609  1422  2014-03-30 18  2014-04-06 12  070  303  0733   0888    989   45  IVANOE
 610  1423  2014-03-31 00  2014-04-15 06  031  263  1450   1611    922  135  ITA
 611  1424  2014-04-15 18  2014-04-25 06  108  231  0908   1034    956   90  JACK
 612  1501  2014-11-13 18  2014-11-25 06  059  149  0474   0705    974   65  ADJALI
 613  1502  2014-11-20 18  2014-11-30 12  060  201  0600   0917    996   35  201502
 614  1503  2014-12-09 00  2014-12-16 18  070  096  0844   1040    993   40  BAKUNG
 615  1504  2014-12-21 18  2015-01-04 12  067  300  0798   1005    944  105  KATE
 616  1505  2015-01-07 18  2015-01-19 18  162  405  0503   1015    918  140  BANSI
 617  1506  2015-01-11 00  2015-01-25 06  153  651  0371   0965    985   50  CHEDZA
 618  1507  2015-01-19 12  2015-01-27 12  104  401  1535W  1341W   982   55  NIKO
 619  1508  2015-01-22 12  2015-02-06 00  095  658  0776   1080    989   45  DIAMONDRA
 620  1509  2015-01-24 12  2015-02-02 12  129  285  0632   0915    918  140  EUNICE
 621  1510  2015-01-26 18  2015-02-04 12  155  354  1560   1743    967   75  OLA
 622  1511  2015-02-04 12  2015-02-11 06  196  407  0377   0442    989   45  FUNDI
 623  1512  2015-02-11 12  2015-02-22 18  110  215  1260   1484    948  100  LAM
 624  1513  2015-02-13 06  2015-03-01 00  137  280  1502   1633    937  115  MARCIA
 625  1514  2015-02-14 12  2015-03-03 18  072  524  0667   0916    982   55  GLENDA
 626  1515  2015-03-03 00  2015-03-10 18  140  213  0409   0530    996   35  201515
 627  1516  2015-03-04 12  2015-03-16 18  129  376  0495   1076    993   40  HALIBA
 628  1517  2015-03-04 00  2015-03-23 06  060  679  1688   1128W   914  145  PAM
 629  1518  2015-03-08 00  2015-03-28 18  114  148  1236   1542    956   90  NATHAN
 630  1519  2015-03-08 18  2015-03-17 12  136  445  1131   1376    959   85  OLWYN
 631  1520  2015-03-18 18  2015-03-31 18  127  427  1779W  1367W   988   45  REUBEN
 632  1521  2015-04-01 00  2015-04-13 18  088  405  0864   1277    944  105  IKOLA
 633  1522  2015-03-26 12  2015-04-17 12  136  423  0620   0869    956   90  JOALANE
 634  1523  2015-04-08 00  2015-04-13 00  079  253  1604   1748    982   55  SOLO
 635  1524  2015-04-26 12  2015-05-01 18  106  233  1091   1164    937  115  QUANG
 636  1525  2015-06-24 06  2015-07-05 06  030  098  1574   1661    996   45  RAQUEL
 637  1601  2015-07-29 06  2015-08-08 00  043  160  1637   1740    996   35  201601
 638  1602  2015-10-12 21  2015-10-19 06  098  247  1710   1786    993   40  201602
 639  1603  2015-11-17 12  2015-11-28 12  033  254  0705   0833    978   60  ANNABELLE
 640  1604  2015-11-22 18  2015-12-10 18  099  572  1777   1320W   989   40  TUNI
 641  1605  2015-12-06 18  2015-12-16 18  070  320  0648   0812    989   45  BOHALE
 642  1606  2015-12-29 00  2016-01-16 06  083  305  1700   1664W   933  120  ULA
 643  1607  2016-01-11 06  2016-01-30 00  083  530  1784   1580W   956   90  VICTOR
 644  1608  2016-01-17 12  2016-01-31 00  134  311  0716   0821    967   75  CORENTIN
 645  1609  2016-01-27 00  2016-02-06 18  120  346  1176   1534    974   65  STAN
 646  1610  2016-02-03 18  2016-02-12 18  123  342  0507   0605    989   45  DAYA
 647  1611  2016-02-05 00  2016-03-03 12  041  274  1457   1709W   907  155  WINSTON
 648  1612  2016-02-05 00  2016-02-17 06  078  265  1546   1606    982   55  TATIANA
 649  1613  2016-02-06 06  2016-02-28 00  036  556  0768   1636    929  125  URIAH
 650  1614  2016-02-21 06  2016-02-28 12  143  286  1675W  1432W   985   50  YALO
 651  1615  2016-03-14 00  2016-03-24 00  101  115  0831   0879    929  125  EMERAUDE
 652  1616  2016-03-12 06  2016-03-17 06  156  176  1357   1425    994   45  201616
 653  1617  2016-03-26 18  2016-03-30 18  125  301  0705   0846    993   40  201617
 654  1618  2016-04-03 00  2016-04-07 18  126  228  1610   1708W   956   90  ZENA
 655  1619  2016-04-09 06  2016-04-28 00  050  131  0404   0790    911  150  FANTALA
 656  1620  2016-04-14 06  2016-04-27 06  123  174  1725   1625W   956   90  AMOS
=============================================================================================          
   cyclone  start date     end date       latitude  longitude      min  max  cyclone
    number  yyyy-mm-dd hh  yyyy-mm-dd hh  min  max  min    max     hPa  kts  name   
	            

Document: summary_oper.htm
Updated: 4 September 2016
[Australian Severe Weather index] [Copyright Notice] [Email Contacts] [Search This Site]